Tempos de volta de FÓRMULA 4 COPA KGV DE KART - FÓRMULA 4 / TOMADA - 08:30
COPA KGV DE KART 3° ETAPA - EVENTO VI a funcionar CIRCUITO COPA KGV DE KART
Tempos de volta de FÓRMULA 4 - COPA KGV DE KART - FÓRMULA 4 / TOMADA - 08:30


Hora do dia Volta Volta Tm Velocidade
177 - RENZO ZAMBOLINI - F4 (G)
8:27:18.616 1 47.329 57,428
8:28:00.029 2 41.413 65,632
8:28:40.057 3 40.028 67,902
8:29:19.631 4 39.574 68,681
8:29:58.975 5 39.344 69,083
8:30:37.964 6 38.989 69,712
8:31:17.207 7 39.243 69,261
8:31:56.342 8 39.135 69,452
8:32:35.372 9 39.030 69,639
005 - DOMINGOS IORIO / F. MEIRA - F4 (S)
8:27:28.705 1 54.632 49,751
8:28:10.972 2 42.267 64,305
8:28:50.717 3 39.745 68,386
8:29:29.789 4 39.072 69,564
8:30:09.810 5 40.021 67,914
8:30:49.095 6 39.285 69,187
8:31:28.428 7 39.333 69,102
8:32:07.474 8 39.046 69,610
8:32:46.485 9 39.011 69,673
001 - R. FRANÇA / D. GODINHO - F4 (S)
8:27:17.628 1 46.892 57,963
8:27:59.383 2 41.755 65,094
8:28:39.449 3 40.066 67,838
8:29:19.228 4 39.779 68,328
8:29:58.463 5 39.235 69,275
8:30:37.714 6 39.251 69,247
8:31:16.840 7 39.126 69,468
8:31:55.971 8 39.131 69,459
8:32:35.288 9 39.317 69,130
073 - GABRIEL CHINELLATO / A. CATTUCCI - F4 (G)
8:27:20.837 1 49.038 55,426
8:28:02.732 2 41.895 64,876
8:28:43.860 3 41.128 66,086
8:29:23.674 4 39.814 68,267
8:30:06.613 5 42.939 63,299
8:30:46.414 6 39.801 68,290
8:31:25.924 7 39.510 68,793
8:32:05.416 8 39.492 68,824
8:32:44.712 9 39.296 69,167
070 - ELETRIC PRODUTOS AUTOMOTIVOS - F4 (S)
8:27:24.336 1 50.103 54,248
8:28:08.207 2 43.871 61,954
8:28:49.009 3 40.802 66,614
8:29:29.429 4 40.420 67,244
8:30:10.566 5 41.137 66,072
8:30:51.519 6 40.953 66,369
8:31:30.877 7 39.358 69,058
8:32:10.518 8 39.641 68,565
8:32:50.089 9 39.571 68,687
088 - AKIRA EGUTI - F4 (S)
8:27:27.766 1 51.851 52,419
8:28:12.614 2 44.848 60,605
8:28:53.408 3 40.794 66,627
8:29:35.347 4 41.939 64,808
8:30:14.857 5 39.510 68,793
8:30:55.550 6 40.693 66,793
8:31:34.976 7 39.426 68,939
8:32:14.374 8 39.398 68,988
8:32:54.062 9 39.688 68,484
097 - THYAGO MORAES / MARCO REZENDE - F4 (L)
8:27:24.896 1 51.543 52,733
8:28:08.606 2 43.710 62,183
8:28:49.503 3 40.897 66,460
8:29:29.630 4 40.127 67,735
8:30:09.687 5 40.057 67,853
8:30:50.829 6 41.142 66,064
8:31:30.597 7 39.768 68,346
8:32:10.051 8 39.454 68,890
8:32:49.483 9 39.432 68,929
153 - MARCOS BARONE - F4 (S)
8:27:22.489 1 49.052 55,411
8:28:04.808 2 42.319 64,226
8:28:45.379 3 40.571 66,994
8:29:25.380 4 40.001 67,948
8:30:05.277 5 39.897 68,125
8:30:44.911 6 39.634 68,577
8:31:25.044 7 40.133 67,725
8:32:04.751 8 39.707 68,451
8:32:44.286 9 39.535 68,749
076 - HENRIQUE PETTINARI - F4 (L)
8:27:31.500 1 49.606 54,792
8:28:16.392 2 44.892 60,545
8:28:57.512 3 41.120 66,099
8:29:37.891 4 40.379 67,312
8:30:17.676 5 39.785 68,317
8:30:57.247 6 39.571 68,687
8:31:38.136 7 40.889 66,473
8:32:18.040 8 39.904 68,113
8:32:58.655 9 40.615 66,921
045 - GABRIEL ROSA - F4 (S)
8:27:20.388 1 48.737 55,769
8:28:02.118 2 41.730 65,133
8:28:42.656 3 40.538 67,048
8:29:22.650 4 39.994 67,960
8:30:03.888 5 41.238 65,910
8:30:44.705 6 40.817 66,590
8:31:24.693 7 39.988 67,970
8:32:04.504 8 39.811 68,273
8:32:44.088 9 39.584 68,664
126 - ERICK DANTAS - F4 (G)
8:27:21.373 1 48.798 55,699
8:28:02.827 2 41.454 65,567
8:28:43.255 3 40.428 67,231
8:29:23.308 4 40.053 67,860
8:30:03.807 5 40.499 67,113
8:30:43.916 6 40.109 67,765
8:31:25.740 7 41.824 64,987
8:32:06.200 8 40.460 67,177
8:32:45.811 9 39.611 68,617
147 - THIAGO LOPES - F4 (S)
8:27:23.140 1 50.277 54,061
8:28:06.417 2 43.277 62,805
8:28:47.475 3 41.058 66,199
8:29:27.575 4 40.100 67,781
8:30:07.404 5 39.829 68,242
8:30:47.156 6 39.752 68,374
8:31:26.818 7 39.662 68,529
8:32:06.529 8 39.711 68,445
8:32:46.335 9 39.806 68,281
144 - DGEISON DE LUCCA - F4 (S)
8:27:20.001 1 48.303 56,270
8:28:01.435 2 41.434 65,598
8:28:41.843 3 40.408 67,264
8:29:22.113 4 40.270 67,494
8:30:02.172 5 40.059 67,850
8:30:41.963 6 39.791 68,307
8:31:21.990 7 40.027 67,904
8:32:01.739 8 39.749 68,379
8:32:41.840 9 40.101 67,779
333 - MIMI SCHIVEL CORINTHIANS - F4 (G)
8:27:19.274 1 47.793 56,870
8:28:01.121 2 41.847 64,951
8:28:41.972 3 40.851 66,534
8:29:22.342 4 40.370 67,327
8:30:02.370 5 40.028 67,902
8:30:42.405 6 40.035 67,891
8:31:22.244 7 39.839 68,225
8:32:02.038 8 39.794 68,302
8:32:42.074 9 40.036 67,889
113 - CARLOS TOLEDO PIZA - F4 (L)
8:27:21.654 1 49.674 54,717
8:28:03.760 2 42.106 64,551
8:28:44.175 3 40.415 67,252
8:29:24.556 4 40.381 67,309
8:30:04.668 5 40.112 67,760
8:30:44.840 6 40.172 67,659
8:31:25.469 7 40.629 66,898
8:32:05.293 8 39.824 68,250
8:32:45.725 9 40.432 67,224
031 - AUGUSTO CHAGAS - F4 (L)
8:27:22.489 1 49.700 54,688
8:28:07.441 2 44.952 60,464
8:28:48.834 3 41.393 65,663
8:29:29.223 4 40.389 67,296
8:30:09.585 5 40.362 67,341
8:30:50.255 6 40.670 66,831
8:31:30.612 7 40.357 67,349
8:32:11.781 8 41.169 66,021
8:32:51.806 9 40.025 67,908
016 - JL OLIVEIRA - F4 (L)
8:27:33.287 1 53.474 50,828
8:28:18.059 2 44.772 60,708
8:29:00.035 3 41.976 64,751
8:29:41.254 4 41.219 65,940
8:30:21.862 5 40.608 66,933
8:31:02.312 6 40.450 67,194
8:31:42.519 7 40.207 67,600
8:32:22.632 8 40.113 67,759
8:33:02.673 9 40.041 67,880
044 - CHRISTIAN MARKAKIS - F4 (L)
8:27:26.086 1 50.835 53,467
8:28:11.218 2 45.132 60,223
8:28:52.840 3 41.622 65,302
8:29:33.314 4 40.474 67,154
8:30:13.777 5 40.463 67,172
8:30:53.733 6 39.956 68,025
8:31:33.649 7 39.916 68,093
8:32:13.794 8 40.145 67,705
8:32:53.559 9 39.765 68,352
797 - EDUARDO PEREZ / THIAGO MORAES - F4 (S)
8:27:26.616 1 51.958 52,311
8:28:11.625 2 45.009 60,388
8:28:53.058 3 41.433 65,600
8:29:33.910 4 40.852 66,533
8:30:14.380 5 40.470 67,161
8:30:54.658 6 40.278 67,481
8:31:35.138 7 40.480 67,144
8:32:15.443 8 40.305 67,436
8:32:55.846 9 40.403 67,272
008 - CARLOS COMPARATTO - F4 (S)
8:27:25.604 1 50.673 53,638
8:28:10.434 2 44.830 60,629
8:28:52.071 3 41.637 65,278
8:29:32.769 4 40.698 66,785
8:30:13.045 5 40.276 67,484
8:30:53.076 6 40.031 67,897
8:31:33.035 7 39.959 68,020
8:32:13.019 8 39.984 67,977
8:32:52.949 9 39.930 68,069
Gerada em 04/09/2021 13:23